Terminal Aerodrome Forecast
Issued by NWS

Home | Current Version | Previous Version | Text Only | Print | Product List | Glossary On
Versions: 1 2 3 4 5 6 7 8 9 10 11 12 13 14 15
000
FTUS42 KTAE 221743
TAFABY
TAF
KABY 221743Z 2218/2318 10009KT 5SM -RA BKN015 OVC030
      TEMPO 2218/2222 2SM RA BR OVC015
     FM230200 04005KT P6SM OVC012
     FM230600 06005KT 4SM BR OVC004
     FM231600 07005KT P6SM SCT004 BKN012=

USA.gov is the U.S. government's official web portal to all federal, state and local government web resources and services.